sensor_id;sensor_type;location;lat;lon;timestamp;P1;durP1;ratioP1;P2;durP2;ratioP2
28070;SDS011;15383;48.408;9.968;2022-09-23T00:36:42;7.97;;;3.10;;
28070;SDS011;15383;48.408;9.968;2022-09-23T00:39:10;7.32;;;2.97;;
28070;SDS011;15383;48.408;9.968;2022-09-23T02:00:18;4.97;;;2.95;;
28070;SDS011;15383;48.408;9.968;2022-09-23T06:19:34;8.00;;;4.97;;
28070;SDS011;15383;48.408;9.968;2022-09-23T17:26:11;14.10;;;6.25;;
28070;SDS011;15383;48.408;9.968;2022-09-23T17:28:38;10.80;;;5.63;;
28070;SDS011;15383;48.408;9.968;2022-09-23T17:31:04;9.73;;;6.10;;
28070;SDS011;15383;48.408;9.968;2022-09-23T17:33:31;8.50;;;5.93;;
28070;SDS011;15383;48.408;9.968;2022-09-23T19:25:05;16.25;;;7.72;;
28070;SDS011;15383;48.408;9.968;2022-09-23T21:55:38;16.35;;;6.93;;
28070;SDS011;15383;48.408;9.968;2022-09-23T21:58:04;14.65;;;7.57;;
28070;SDS011;15383;48.408;9.968;2022-09-23T22:00:29;13.30;;;7.90;;
28070;SDS011;15383;48.408;9.968;2022-09-23T22:02:55;19.10;;;7.70;;
28070;SDS011;15383;48.408;9.968;2022-09-23T22:05:21;14.20;;;7.22;;
28070;SDS011;15383;48.408;9.968;2022-09-23T22:14:35;11.95;;;6.55;;
28070;SDS011;15383;48.408;9.968;2022-09-23T22:18:01;15.50;;;6.53;;
28070;SDS011;15383;48.408;9.968;2022-09-23T22:20:47;11.55;;;6.53;;
28070;SDS011;15383;48.408;9.968;2022-09-23T22:23:12;15.65;;;7.20;;
28070;SDS011;15383;48.408;9.968;2022-09-23T22:25:38;14.43;;;6.65;;
28070;SDS011;15383;48.408;9.968;2022-09-23T22:28:04;16.70;;;7.05;;
28070;SDS011;15383;48.408;9.968;2022-09-23T22:30:48;13.25;;;6.85;;
28070;SDS011;15383;48.408;9.968;2022-09-23T22:33:32;17.63;;;8.55;;
28070;SDS011;15383;48.408;9.968;2022-09-23T22:36:01;14.10;;;6.93;;
28070;SDS011;15383;48.408;9.968;2022-09-23T22:38:27;16.77;;;7.55;;
28070;SDS011;15383;48.408;9.968;2022-09-23T22:40:55;11.65;;;6.25;;
28070;SDS011;15383;48.408;9.968;2022-09-23T22:43:21;11.73;;;6.70;;
28070;SDS011;15383;48.408;9.968;2022-09-23T22:45:47;9.90;;;6.28;;
28070;SDS011;15383;48.408;9.968;2022-09-23T22:48:14;13.05;;;7.40;;
28070;SDS011;15383;48.408;9.968;2022-09-23T22:50:42;11.48;;;6.78;;
28070;SDS011;15383;48.408;9.968;2022-09-23T22:53:07;13.20;;;6.82;;
28070;SDS011;15383;48.408;9.968;2022-09-23T22:55:34;10.68;;;6.90;;
28070;SDS011;15383;48.408;9.968;2022-09-23T22:58:00;10.95;;;6.55;;
28070;SDS011;15383;48.408;9.968;2022-09-23T23:00:26;21.75;;;7.88;;
28070;SDS011;15383;48.408;9.968;2022-09-23T23:02:53;28.85;;;10.80;;
28070;SDS011;15383;48.408;9.968;2022-09-23T23:05:19;20.23;;;8.63;;
28070;SDS011;15383;48.408;9.968;2022-09-23T23:07:45;17.02;;;8.60;;
28070;SDS011;15383;48.408;9.968;2022-09-23T23:10:10;10.35;;;5.93;;
28070;SDS011;15383;48.408;9.968;2022-09-23T23:12:38;12.65;;;6.55;;
28070;SDS011;15383;48.408;9.968;2022-09-23T23:15:04;15.98;;;7.18;;
28070;SDS011;15383;48.408;9.968;2022-09-23T23:17:30;11.52;;;6.90;;
28070;SDS011;15383;48.408;9.968;2022-09-23T23:19:55;13.05;;;6.53;;
28070;SDS011;15383;48.408;9.968;2022-09-23T23:22:24;14.68;;;6.70;;
28070;SDS011;15383;48.408;9.968;2022-09-23T23:24:51;11.13;;;6.35;;
28070;SDS011;15383;48.408;9.968;2022-09-23T23:28:29;17.55;;;6.18;;
28070;SDS011;15383;48.408;9.968;2022-09-23T23:31:00;11.93;;;7.50;;
28070;SDS011;15383;48.408;9.968;2022-09-23T23:33:27;16.15;;;8.05;;
28070;SDS011;15383;48.408;9.968;2022-09-23T23:35:52;18.45;;;7.18;;
28070;SDS011;15383;48.408;9.968;2022-09-23T23:38:18;12.82;;;8.02;;
28070;SDS011;15383;48.408;9.968;2022-09-23T23:40:44;12.98;;;6.55;;
28070;SDS011;15383;48.408;9.968;2022-09-23T23:43:10;14.07;;;7.55;;
28070;SDS011;15383;48.408;9.968;2022-09-23T23:45:35;18.08;;;7.95;;
28070;SDS011;15383;48.408;9.968;2022-09-23T23:48:01;16.17;;;8.55;;
28070;SDS011;15383;48.408;9.968;2022-09-23T23:50:27;9.13;;;6.60;;
28070;SDS011;15383;48.408;9.968;2022-09-23T23:52:52;10.60;;;6.20;;
28070;SDS011;15383;48.408;9.968;2022-09-23T23:55:18;11.85;;;6.93;;
28070;SDS011;15383;48.408;9.968;2022-09-23T23:57:43;11.23;;;6.63;;
